logo
App data

Everyday Genius: SquareLogic

The next generation of puzzle games is here! Combining simple arithmetic with colorful cages and logical problem solving, this new puzzle game makes sure you never have to guess—and you don’t have to be a math wiz!
Store | Hub | SteamDB | Site
Developer: TrueThought Publisher: TrueThought
Genre: Casual, Indie, Strategy
Languages: English
Tags: Casual (39), Puzzle (35), Indie (28), Strategy (27), Relaxing (11), Logic (11)
Category: Single-player, Steam Achievements, Steam Cloud, Stats, Steam Leaderboards
Release date: Oct 21, 2009
Price: $4.99
Score rank: 97% Userscore: 97% Old userscore: 98%
Owners: 0 .. 20,000
Peak concurrent players yesterday: 15
Playtime total: 70:39 (average) 89:40 (median)

Steam Spy is still in beta, so expect major bugs.

Owners data:

Access restricted.

This feature is only available to users with special access rights. Sorry.

If you want to proceed, you need to register or log in first and then back Steam Spy on Patreon. Look for Indie or Pro pledge.

Don't forget to use the same email as on Steam Spy!

Audience in 2 weeks:

Access restricted.

This feature is only available to users with special access rights. Sorry.

If you want to proceed, you need to register or log in first and then back Steam Spy on Patreon. Look for Indie or Pro pledge.

Don't forget to use the same email as on Steam Spy!

Peak daily concurrent players:

CCU data courtesy of SteamDB. Used with permission.

Hourly concurrent players:

Daily Twitch stats:

Hourly Twitch stats:

YouTube:

The views data is based on top 50 videos uploaded last week. Actual number of views might be more than the number shown.

The displayed number of videos uploaded yesterday is limited to 50, so if there were more videos uploaded, the number will still show 50.

If the game has commonly used word as its name (like "FEAR" or "Volume") its number of Youtube views might be wrong.

Games similar to this one:

# Game Release date
Price
Score rank
(Userscore / Metascore)
Owners
Players
Playtime (Median)
1 Night Blights Apr 15, 2016 $4.99100% (100%)0 .. 20,0000%00:00 (00:00)
2 Hidden in Plain Sight Jul 16, 2014 $5.9999% (98%)20,000 .. 50,0000%00:00 (00:00)
3 Quell May 14, 2015 $3.9999% (98%)0 .. 20,0000%00:00 (00:00)
4 Luxor Evolved Mar 1, 2012 $9.9997% (97%)50,000 .. 100,0000%00:00 (00:00)
5 Hustle Cat Mar 16, 2016 $19.9997% (97%)0 .. 20,0000%00:00 (00:00)
6 Carrie's Order Up! Sep 13, 2016 $2.9997% (97%)0 .. 20,0000%00:00 (00:00)
7 HyperRogue Jan 16, 2015 $4.9995% (96%)20,000 .. 50,0000%00:00 (00:00)
8 Letter Quest: Grimm's Journey Nov 20, 2014 $7.9995% (96%/73%)50,000 .. 100,0000%00:00 (00:00)
9 Overload Mar 13, 2017 $24.9995% (96%)0 .. 20,0000%00:00 (00:00)
10 Moonlight Feb 5, 2016 $2.9993% (95%)0 .. 20,0000%00:00 (00:00)
11 The Counting Kingdom Aug 5, 2014 $6.9993% (95%)0 .. 20,0000%00:00 (00:00)
12 Unium Feb 3, 2015 $1.9993% (95%)20,000 .. 50,0000%00:00 (00:00)
13 [the Sequence] Mar 30, 2016 $1.9990% (94%)0 .. 20,0000%00:00 (00:00)
14 Goats on a Bridge Feb 6, 2015 $4.9990% (94%)50,000 .. 100,0000%00:00 (00:00)
15 Creeper World: Anniversary Edition Nov 16, 2016 $4.9990% (94%)0 .. 20,0000%00:00 (00:00)
16 Chip's Challenge 2 May 28, 2015 $4.9990% (94%)20,000 .. 50,0005.88%04:28 (01:29)
17 Pictopix Jan 5, 2017 $6.9990% (94%)0 .. 20,0000%00:00 (00:00)
18 Space Hole 2016 Sep 2, 2016 $0.99N/A (N/A)0 .. 20,0000%00:00 (00:00)
19 Gateways Sep 13, 2012 $4.9987% (93%/72%)50,000 .. 100,0000%00:00 (00:00)
20 Girls Like Robots Feb 14, 2014 $6.9987% (93%)100,000 .. 200,0000%00:00 (00:00)
21 Strata May 29, 2014 $3.9987% (93%)20,000 .. 50,0000%00:00 (00:00)
22 Swapperoo Dec 18, 2015 $4.99N/A (N/A)0 .. 20,0000%00:00 (00:00)
23 Prelogate Dec 10, 2014 $3.9987% (93%)0 .. 20,0000%00:00 (00:00)
24 Frog Climbers Oct 6, 2016 $6.9983% (92%)50,000 .. 100,0000%00:00 (00:00)
25 Grapple Mar 9, 2015 $7.9983% (92%)20,000 .. 50,0000%00:00 (00:00)
26 Soundodger+ Oct 11, 2013 $7.9983% (92%/78%)20,000 .. 50,0003.7%01:10 (00:46)
27 Dream Car Builder Sep 22, 2016 $14.9983% (92%)0 .. 20,0000%00:00 (00:00)
28 Triple Town Dec 6, 2012 $9.9983% (92%)50,000 .. 100,0000%00:00 (00:00)
29 Modbox Apr 5, 2016 $14.9983% (92%)20,000 .. 50,0000%00:00 (00:00)
30 Unhack Feb 20, 2014 $3.9983% (92%)20,000 .. 50,0000%00:00 (00:00)
31 Cloudberry Kingdom Aug 2, 2013 $9.9983% (92%/67%)0 .. 20,0000%00:00 (00:00)
32 Mu Cartographer May 29, 2016 $4.9979% (91%)0 .. 20,0000%00:00 (00:00)
33 Windosill Sep 25, 2009 $2.9979% (91%)100,000 .. 200,0000%00:00 (00:00)
34 Oik 2 Mar 28, 2017 $0.9979% (91%)20,000 .. 50,0000%00:00 (00:00)
35 Cubot Jan 8, 2015 $1.9979% (91%)0 .. 20,0000%00:00 (00:00)
36 One Night Stand Nov 7, 2016 $2.9979% (91%)20,000 .. 50,0000%00:00 (00:00)
37 Koala Kids Jun 22, 2015 $0.9979% (91%)20,000 .. 50,0000%00:00 (00:00)
38 Tribloos 2 Jan 12, 2013 $4.9979% (91%)100,000 .. 200,0001.66%04:20 (03:38)
39 Sokobond Jul 21, 2014 $9.9979% (91%/82%)20,000 .. 50,0000%00:00 (00:00)
40 Earthtongue Apr 27, 2015 $4.9979% (91%)0 .. 20,0000%00:00 (00:00)
41 Crayon Physics Deluxe May 6, 2009 $19.9979% (91%/79%)500,000 .. 1,000,0000.37%00:31 (00:10)
42 CarX Drift Racing Online Nov 17, 2017 $9.9976% (90%)50,000 .. 100,00028.95%05:03 (04:12)
43 On Rusty Trails Jun 13, 2016 $12.9976% (90%/77%)0 .. 20,0000.99%00:32 (00:10)
44 Never give up! Dec 29, 2016 $2.9976% (90%)0 .. 20,00010%02:58 (01:58)
45 LogiGun Aug 1, 2012 $4.9976% (90%)0 .. 20,0000%00:00 (00:00)
46 The Reject Demon: Toko Chapter 0 — Prelude May 9, 2015 $4.9973% (89%)0 .. 20,0000%00:00 (00:00)
47 Parallax Mar 10, 2015 $9.9973% (89%/68%)0 .. 20,0000%00:00 (00:00)
48 PANORAMICAL Sep 17, 2015 $9.9973% (89%)0 .. 20,0000%00:00 (00:00)
49 Dots eXtreme Jun 12, 2016 $1.9973% (89%)20,000 .. 50,0000%00:00 (00:00)
50 Beyond Gravity Sep 23, 2014 $1.9973% (89%)20,000 .. 50,0000%00:00 (00:00)
51 Bob Was Hungry Aug 19, 2015 $9.9973% (89%)20,000 .. 50,0000%00:00 (00:00)
52 Vampires: Guide Them to Safety! Oct 22, 2014 $4.99N/A (N/A)0 .. 20,0000%00:00 (00:00)
53 This Starry Midnight We Make Jun 1, 2015 $9.99N/A (N/A)0 .. 20,0000%00:00 (00:00)
54 12 Labours of Hercules V: Kids of Hellas (Platinum Edition) Jun 17, 2016 $2.9973% (89%)20,000 .. 50,0001.59%02:02 (00:40)
55 Forgotten, Not Lost - A Kinetic Novel Apr 2, 2016 $1.9970% (88%)20,000 .. 50,0004.63%04:40 (04:44)
56 Glowfish Sep 30, 2011 $9.9970% (88%)50,000 .. 100,0000%00:00 (00:00)
57 Rooms: The Unsolvable Puzzle May 1, 2015 $14.9970% (88%/66%)0 .. 20,0000%00:00 (00:00)
58 Thrillville: Off the Rails Jul 8, 2009 $9.9970% (88%/70%)20,000 .. 50,0000%00:00 (00:00)
59 The Shape Of Heart Oct 25, 2016 $2.9970% (88%)0 .. 20,0000%00:00 (00:00)
60 Cat President ~A More Purrfect Union~ Aug 23, 2016 $8.9970% (88%)0 .. 20,0000%00:00 (00:00)
61 PixelJunk Eden Feb 2, 2012 $9.9968% (87%/81%)200,000 .. 500,0000%00:00 (00:00)
62 Cursed Sight Aug 3, 2015 $5.9968% (87%)0 .. 20,0000%00:00 (00:00)
63 CrossCells May 26, 2017 $2.9965% (86%)20,000 .. 50,0000%00:00 (00:00)
64 Asphyxia Aug 4, 2015 $5.9965% (86%)20,000 .. 50,0000%00:00 (00:00)
65 Golf for Workgroups Apr 6, 2017 $4.99N/A (N/A)0 .. 20,0000%00:00 (00:00)
66 Spy Chameleon - RGB Agent Jun 11, 2014 $4.9965% (86%)50,000 .. 100,0000%00:00 (00:00)
67 Sophie's Curse Mar 16, 2016 $4.9965% (86%)20,000 .. 50,0000%00:00 (00:00)
68 Army of Pixels Oct 29, 2015 $4.99N/A (N/A)0 .. 20,0000%00:00 (00:00)
69 Dead Man's Draw Feb 6, 2014 $6.9962% (85%)20,000 .. 50,0000%00:00 (00:00)
70 Surfingers Jan 27, 2016 $1.9962% (85%)50,000 .. 100,0001.03%00:12 (00:08)
71 Dominique Pamplemousse Mar 11, 2014 $0.9962% (85%/62%)20,000 .. 50,0000%00:00 (00:00)
72 Counter Fight Nov 14, 2016 $7.9962% (85%)0 .. 20,0000%00:00 (00:00)
73 BAD END Nov 25, 2015 $1.9962% (85%)20,000 .. 50,0002.08%01:00 (00:20)
74 Sentinel 4: Dark Star Aug 13, 2015 $6.99N/A (N/A)0 .. 20,0000%00:00 (00:00)
75 Governor of Poker 2 - Premium Edition Oct 11, 2010 $14.9960% (84%)20,000 .. 50,0000%00:00 (00:00)
76 The Treasures of Montezuma 4 Oct 9, 2013 $1.3960% (84%)20,000 .. 50,0000%00:00 (00:00)
77 Magma Tsunami Jun 1, 2016 $0.9960% (84%)100,000 .. 200,0000%00:00 (00:00)
78 RePete Nov 1, 2015 $1.99N/A (N/A)0 .. 20,0000%00:00 (00:00)
79 Crash Drive 2 May 28, 2015 $4.9957% (83%)50,000 .. 100,0000.88%04:56 (01:46)
80 Cute Things Dying Violently Sep 2, 2015 $2.9957% (83%)0 .. 20,0000%00:00 (00:00)
81 Asteroids Minesweeper Jul 8, 2016 $1.99N/A (N/A)0 .. 20,0000%00:00 (00:00)
82 Gridworld Dec 29, 2015 $0.9957% (83%)0 .. 20,0000%00:00 (00:00)
83 Cyto Jul 10, 2014 $3.9957% (83%)20,000 .. 50,0000%00:00 (00:00)
84 Blocks That Matter Aug 19, 2011 $4.9955% (82%/72%)200,000 .. 500,0000%00:00 (00:00)
85 Job the Leprechaun Jul 31, 2015 $0.4955% (82%)20,000 .. 50,0000%00:00 (00:00)
86 SnakEscape Feb 12, 2016 $7.9955% (82%)0 .. 20,0002.44%04:32 (01:30)
87 Auditorium Feb 28, 2012 $6.9955% (82%)50,000 .. 100,0000%00:00 (00:00)
88 Gravity Cat Jul 13, 2016 $2.9955% (82%)20,000 .. 50,0000%00:00 (00:00)
89 Masky Dec 16, 2016 $0.9955% (82%)0 .. 20,0002.94%01:00 (00:20)
90 Steam and Metal Feb 9, 2015 $4.99N/A (N/A)0 .. 20,0000%00:00 (00:00)
91 Star Sky - ブルームーン Oct 23, 2015 $0.9952% (81%)0 .. 20,0000%00:00 (00:00)
92 ISLANDS: Non-Places Nov 17, 2016 $4.9952% (81%)0 .. 20,0000%00:00 (00:00)
93 The Floor is Jelly May 30, 2014 $9.9952% (81%/83%)20,000 .. 50,0000%00:00 (00:00)
94 Space Drifters 2D Mar 28, 2016 $0.99N/A (N/A)0 .. 20,0000%00:00 (00:00)
95 Collisions Jul 28, 2015 $3.9952% (81%)20,000 .. 50,0000%00:00 (00:00)
96 Stay Alight Mar 2, 2015 $3.9952% (81%)20,000 .. 50,0000%00:00 (00:00)
97 Rescue Team 5 Sep 30, 2015 $3.9950% (80%)20,000 .. 50,0000%00:00 (00:00)
98 Cash_Out May 27, 2015 $4.99N/A (N/A)0 .. 20,0000%00:00 (00:00)
99 Fantastic Contraption Apr 5, 2016 $19.99N/A (N/A)100,000 .. 200,0000%00:00 (00:00)
100 Ricerca VR May 1, 2016 $0.99N/A (N/A)0 .. 20,0000%00:00 (00:00)
101 Timore 5 Aug 25, 2016 $7.9950% (80%)0 .. 20,0000%00:00 (00:00)
102 Blueprint Tycoon May 13, 2016 $2.9950% (80%)50,000 .. 100,0001.96%00:18 (00:06)
103 Feesh Feb 1, 2016 $0.9950% (80%)0 .. 20,0000%00:00 (00:00)
104 Sym May 7, 2015 $7.99N/A (N/A/61%)0 .. 20,0000%00:00 (00:00)
105 Terraform May 8, 2015 $2.99N/A (N/A)0 .. 20,0000%00:00 (00:00)
106 Automation - The Car Company Tycoon Game Mar 12, 2015 $29.9948% (79%)50,000 .. 100,00016.67%16:54 (11:16)
107 Farm for your Life Jun 5, 2013 $9.9948% (79%)50,000 .. 100,0000%00:00 (00:00)
108 Fate Tectonics Sep 9, 2015 $9.9948% (79%)0 .. 20,0000%00:00 (00:00)
109 Farm Frenzy 4 Aug 1, 2013 $6.9946% (78%)20,000 .. 50,0000%00:00 (00:00)
110 Particulars Nov 19, 2014 $5.9946% (78%/74%)20,000 .. 50,0000%00:00 (00:00)
111 Ancients of Ooga May 20, 2011 $9.99N/A (N/A)20,000 .. 50,0000%00:00 (00:00)
112 SinaRun Oct 26, 2015 $2.9944% (77%)0 .. 20,0000%00:00 (00:00)
113 Pretentious Game May 20, 2014 $1.9944% (77%)20,000 .. 50,0000%00:00 (00:00)
114 Satellite Repairman Feb 2, 2017 $3.99N/A (N/A)0 .. 20,0000%00:00 (00:00)
115 Whirligig VR Media Player Apr 4, 2016 $3.9944% (77%)20,000 .. 50,00011.11%00:14 (00:04)
116 Until I Have You Apr 4, 2016 $13.9944% (77%)0 .. 20,0000%00:00 (00:00)
117 Crazy Plant Shop Aug 4, 2014 $4.9944% (77%)20,000 .. 50,0000%00:00 (00:00)
118 Caravanserail Feb 26, 2016 $2.99N/A (N/A)0 .. 20,0000%00:00 (00:00)
119 Puzzler World 2 Oct 24, 2011 $4.9942% (76%)20,000 .. 50,0000%00:00 (00:00)
120 Pixel Puzzles 2: Birds Feb 20, 2015 $1.4942% (76%)100,000 .. 200,0003.05%04:01 (05:04)
121 The Deletion Jul 30, 2015 $1.9942% (76%)20,000 .. 50,0000%00:00 (00:00)
122 Beeftacular Aug 26, 2016 $2.9941% (75%)0 .. 20,0000%00:00 (00:00)
123 Pythagoria Jan 22, 2016 $1.9941% (75%)0 .. 20,0000%00:00 (00:00)
124 Kombine Oct 14, 2016 $0.9941% (75%)0 .. 20,0000%00:00 (00:00)
125 Dodge Mar 16, 2015 $1.9941% (75%)0 .. 20,0000%00:00 (00:00)
126 Sig.NULL Sep 27, 2016 $1.9941% (75%)100,000 .. 200,0000%00:00 (00:00)
127 Where are my Internets? Dec 16, 2016 $2.9941% (75%)0 .. 20,0000%00:00 (00:00)
128 Heroic Dungeon Jun 21, 2017 $3.9941% (75%)0 .. 20,0000%00:00 (00:00)
129 Prehistoric Tales May 25, 2016 $2.99N/A (N/A)0 .. 20,0000%00:00 (00:00)
130 Totally Unbalanced Jul 29, 2016 $2.9939% (74%)0 .. 20,0004%03:55 (01:18)
131 Bunny Hop League Apr 27, 2017 $5.9939% (74%)0 .. 20,0002.86%00:13 (00:04)
132 Smooth Operators Jan 14, 2013 $2.9937% (73%)0 .. 20,0000%00:00 (00:00)
133 Access Denied Dec 16, 2016 $2.9937% (73%)0 .. 20,0000%00:00 (00:00)
134 Riddles Of The Past Jul 22, 2016 $6.9937% (73%)0 .. 20,0000%00:00 (00:00)
135 JiPS Apr 19, 2016 $2.99N/A (N/A)20,000 .. 50,0000.85%04:41 (03:07)
136 ConflictCraft Dec 8, 2016 $2.99N/A (N/A)20,000 .. 50,0000%00:00 (00:00)
137 MOAI 2: Path to Another World Apr 11, 2015 $7.99N/A (N/A)0 .. 20,00010%05:33 (01:51)
138 Over The Void Nov 11, 2014 $4.9935% (72%)0 .. 20,0000%00:00 (00:00)
139 Viking Brothers Apr 23, 2014 $9.99N/A (N/A)0 .. 20,0000%00:00 (00:00)
140 Pester Jan 25, 2013 $0.9935% (72%)100,000 .. 200,0001.46%04:09 (04:46)
141 Crashed Lander Jun 17, 2014 $4.99N/A (N/A)0 .. 20,0000%00:00 (00:00)
142 Sportsfriends Dec 19, 2014 $14.9935% (72%)20,000 .. 50,0000%00:00 (00:00)
143 Farm Frenzy: Hurricane Season Apr 1, 2015 $6.99N/A (N/A)0 .. 20,0000%00:00 (00:00)
144 Point Perfect Jul 17, 2014 $4.9934% (71%)20,000 .. 50,0000%00:00 (00:00)
145 InFlux Jul 23, 2013 $9.9934% (71%)20,000 .. 50,0000%00:00 (00:00)
146 Luxor: 5th Passage Jan 25, 2011 $9.99N/A (N/A)50,000 .. 100,0000%00:00 (00:00)
147 Strategy & Tactics: Dark Ages Aug 4, 2017 $14.9934% (71%)20,000 .. 50,0001.37%05:04 (01:41)
148 Laserlife Sep 22, 2015 $14.9934% (71%)0 .. 20,0000%00:00 (00:00)
149 Music Inside: A VR Rhythm Game Sep 5, 2016 $9.9932% (70%)0 .. 20,0000%00:00 (00:00)
150 Lunnye Devitsy Jul 1, 2009 $4.9932% (70%)20,000 .. 50,0000%00:00 (00:00)
151 Super Lemonade Factory Mar 15, 2012 $4.99N/A (N/A)20,000 .. 50,0000%00:00 (00:00)
152 Lift It Jan 20, 2017 $4.9932% (70%)20,000 .. 50,0000.53%07:39 (02:33)
153 Axel & Pixel Oct 6, 2010 $4.99N/A (N/A)20,000 .. 50,0000%00:00 (00:00)
154 Typefighters (Steam Edition) Apr 18, 2016 $1.9932% (70%)20,000 .. 50,0000%00:00 (00:00)
155 Cibele Nov 2, 2015 $8.9931% (69%/71%)50,000 .. 100,0000%00:00 (00:00)
156 Storm Jun 27, 2013 $9.9929% (68%/63%)20,000 .. 50,0000%00:00 (00:00)
157 Quantz Sep 3, 2009 $9.99N/A (N/A/67%)20,000 .. 50,0000%00:00 (00:00)
158 Armor Clash Oct 22, 2015 $4.9929% (68%)0 .. 20,0000%00:00 (00:00)
159 Love in the Glen Jun 9, 2016 $5.99N/A (N/A)20,000 .. 50,0001.85%03:20 (01:06)
160 Zipple World Jan 19, 2016 $4.99N/A (N/A)0 .. 20,0003.03%00:01 (00:00)
161 Castles Oct 9, 2015 $2.99N/A (N/A)0 .. 20,0000%00:00 (00:00)
162 1931: Scheherazade at the Library of Pergamum Mar 26, 2015 $24.9929% (68%)0 .. 20,0000%00:00 (00:00)
163 Racecraft Mar 4, 2016 $19.9928% (67%)20,000 .. 50,0000%00:00 (00:00)
164 Mind Games Mar 4, 2016 $2.9928% (67%)0 .. 20,0000%00:00 (00:00)
165 Our Love Will Grow Dec 4, 2015 $4.9928% (67%)20,000 .. 50,0000%00:00 (00:00)
166 Marble Duel Nov 12, 2015 $4.9928% (67%)100,000 .. 200,0003.48%03:21 (03:41)
167 Reach for the Sun May 6, 2013 $4.9928% (67%)20,000 .. 50,0000%00:00 (00:00)
168 One Last Chance Apr 7, 2016 $3.9928% (67%)20,000 .. 50,0001.39%01:31 (00:30)
169 CrossWorlds: Escape Oct 12, 2016 $14.9928% (67%)0 .. 20,0000%00:00 (00:00)
170 Herding Dog Dec 25, 2015 $2.99N/A (N/A)0 .. 20,0000%00:00 (00:00)
171 Mines of Mars Dec 18, 2015 $6.99N/A (N/A)0 .. 20,0000%00:00 (00:00)
172 Restaurant Empire II May 27, 2009 $19.9925% (65%/64%)50,000 .. 100,0001.64%01:33 (00:31)
173 Wildlife Park 2 - Horses Oct 12, 2007 $3.99N/A (N/A)0 .. 20,0000%00:00 (00:00)
174 Painters Guild Sep 1, 2015 $9.9925% (65%)50,000 .. 100,0001.11%02:15 (00:45)
175 Winexy Jan 13, 2017 $0.9924% (64%)20,000 .. 50,0001.11%02:30 (00:50)
176 Meadowland Oct 22, 2014 $0.99N/A (N/A)0 .. 20,0000%00:00 (00:00)
177 The Treasures of Montezuma 3 May 19, 2011 $0.7923% (63%)0 .. 20,0004.35%01:22 (00:27)
178 Annie Amber Jun 17, 2016 $2.9922% (62%)0 .. 20,0000%00:00 (00:00)
179 Highborn Feb 19, 2013 $1.99N/A (N/A)0 .. 20,0000%00:00 (00:00)
180 Pixel Survivors May 5, 2016 $3.9920% (61%)50,000 .. 100,0000%00:00 (00:00)
181 Goodnight Butcher Dec 18, 2015 $1.99N/A (N/A)0 .. 20,0000%00:00 (00:00)
182 Power of Love Jul 21, 2015 $4.9920% (61%)20,000 .. 50,0001.47%03:37 (01:30)
183 Metrocide Oct 20, 2014 $12.9919% (60%/68%)20,000 .. 50,0000%00:00 (00:00)
184 Dance Magic Feb 15, 2016 $9.99N/A (N/A)0 .. 20,0000%00:00 (00:00)
185 Boss Monster Apr 28, 2016 $4.9917% (58%)20,000 .. 50,0000%00:00 (00:00)
186 Party Saboteurs Mar 31, 2016 $9.99N/A (N/A)0 .. 20,0002.7%04:33 (01:31)
187 Bunny & Piggy Dec 1, 2016 $0.4916% (57%)50,000 .. 100,0000.69%04:33 (01:31)
188 Way of Gold and Steel Aug 17, 2015 $8.9915% (56%)0 .. 20,0000%00:00 (00:00)
189 Wildlife Park 3 May 12, 2014 $9.9915% (56%)50,000 .. 100,0000%00:00 (00:00)
190 Chunks Apr 11, 2016 $19.99N/A (N/A)20,000 .. 50,0000%00:00 (00:00)
191 Hired Ops Oct 21, 2016 $9.9915% (55%)20,000 .. 50,0007.69%00:15 (00:05)
192 Rolling Shapes Jun 5, 2015 $0.99N/A (N/A)0 .. 20,0000%00:00 (00:00)
193 StarFringe: Adversus Apr 5, 2016 N/AN/A (N/A)20,000 .. 50,0000%00:00 (00:00)
194 Backgammon Blitz Nov 12, 2015 $3.9914% (54%)0 .. 20,0000%00:00 (00:00)
195 Wildlife Park 2 - Dino World Mar 30, 2012 $3.99N/A (N/A)20,000 .. 50,0000%00:00 (00:00)
196 Townopolis Oct 19, 2008 $0.9913% (53%)20,000 .. 50,0000%00:00 (00:00)
197 The Good Life Nov 2, 2012 $9.9913% (53%)0 .. 20,0000%00:00 (00:00)
198 Sky to Fly: Soulless Leviathan Jul 22, 2016 $3.9913% (53%)0 .. 20,0004.76%04:34 (01:31)
199 Gravi Oct 8, 2013 $4.9913% (53%)20,000 .. 50,0000%00:00 (00:00)
200 Drizzlepath Mar 12, 2015 $1.4913% (53%)20,000 .. 50,0000%00:00 (00:00)
201 Reptilian Rebellion Aug 8, 2016 $0.9913% (53%)20,000 .. 50,0000%00:00 (00:00)
202 Color Syndrome Jun 20, 2016 $0.9913% (52%)20,000 .. 50,0000.98%01:05 (00:43)
203 Pointless Feb 22, 2016 Free13% (52%)0 .. 20,0000%00:00 (00:00)
204 Pressured Jul 18, 2014 $2.9912% (51%)200,000 .. 500,0001.16%62:10 (117:50)
205 Arctic alive Jan 29, 2016 $1.99N/A (N/A)0 .. 20,0000%00:00 (00:00)
206 Luke Sidewalker Nov 25, 2016 $0.99N/A (N/A)50,000 .. 100,0001.04%04:02 (02:41)
207 Cosmonautica Jul 31, 2015 $6.6912% (51%)100,000 .. 200,0000.82%00:01 (00:00)
208 Rage Runner May 16, 2014 $4.99N/A (N/A)20,000 .. 50,0000%00:00 (00:00)
209 Quantum Rush Champions Dec 4, 2014 $2.9911% (50%)20,000 .. 50,0000%00:00 (00:00)
210 Astro Emporia Feb 2, 2015 $0.9911% (50%)0 .. 20,0001.3%08:30 (02:50)
211 Rigonauts Aug 7, 2012 $9.9910% (48%/60%)0 .. 20,0000%00:00 (00:00)
212 Fiery Disaster Nov 7, 2016 $1.99N/A (N/A)0 .. 20,0000%00:00 (00:00)
213 The Dolls: Reborn May 25, 2016 $4.999% (47%)50,000 .. 100,0000%00:00 (00:00)
214 Wildlife Park 2 - Fantasy Nov 15, 2013 $0.999% (47%)50,000 .. 100,0000%00:00 (00:00)
215 Weapons Genius Jul 7, 2015 $4.999% (46%)100,000 .. 200,0000.33%00:06 (00:02)
216 Autumn Sep 23, 2014 $2.999% (46%)50,000 .. 100,0000%00:00 (00:00)
217 Melting Hearts: Our Love Will Grow 2 Apr 29, 2016 $4.999% (46%)0 .. 20,0000%00:00 (00:00)
218 Farm Life: Natures Adventure Aug 8, 2016 $0.99N/A (N/A)20,000 .. 50,0000%00:00 (00:00)
219 Ninja Stealth 2 Jan 30, 2017 $1.998% (45%)20,000 .. 50,0002.99%02:03 (01:22)
220 Castle Jan 7, 2015 $0.998% (45%)50,000 .. 100,0000%00:00 (00:00)
221 Red Goblin: Cursed Forest May 15, 2015 $4.99N/A (N/A)20,000 .. 50,0000%00:00 (00:00)
222 Economic Conquest Jan 5, 2017 $4.99N/A (N/A)0 .. 20,0000%00:00 (00:00)
223 Arcadia Dec 2, 2010 $4.998% (44%)0 .. 20,0000%00:00 (00:00)
224 iREC Jan 16, 2017 Free7% (41%)50,000 .. 100,0000.99%197:14 (65:44)
225 Evolution Jun 6, 2016 FreeN/A (N/A)0 .. 20,0000%00:00 (00:00)
226 Burst Mar 14, 2016 $0.49N/A (N/A)20,000 .. 50,0000%00:00 (00:00)
227 Streets of Chaos Jan 23, 2015 $0.996% (40%)100,000 .. 200,0000.23%02:27 (00:49)
228 Mech Marines: Steel March Jan 9, 2015 $7.99N/A (N/A)0 .. 20,0000%00:00 (00:00)
229 Don't Chat With Strangers Jan 6, 2017 $4.995% (37%)0 .. 20,0000%00:00 (00:00)
230 Hippocampal: The White Sofa May 27, 2014 $4.995% (36%)0 .. 20,0000%00:00 (00:00)
231 Hide and Secret Treasure of the Ages Mar 15, 2007 $2.99N/A (N/A)0 .. 20,0000%00:00 (00:00)
232 The Legions of Rome Sep 16, 2016 $2.99N/A (N/A)0 .. 20,0000%00:00 (00:00)
233 Labyrinth Simulator Sep 21, 2015 $4.994% (31%)0 .. 20,0000%00:00 (00:00)
234 Robot vs Birds Zombies Jun 1, 2013 $0.994% (31%)0 .. 20,0000%00:00 (00:00)
235 The Housewife Aug 25, 2016 $4.993% (30%)200,000 .. 500,0000%00:00 (00:00)
236 Age of Castles: Warlords May 15, 2015 $0.49N/A (N/A)0 .. 20,0000%00:00 (00:00)
237 Wolf Simulator Nov 16, 2016 $3.993% (27%)50,000 .. 100,00011.74%06:59 (04:30)
238 Triangle Jan 30, 2017 $1.99N/A (N/A)100,000 .. 200,0004.68%04:16 (04:31)
239 Stickmageddon Jun 27, 2017 $0.99N/A (N/A)20,000 .. 50,0000%00:00 (00:00)

Owners of this game also own:

Access restricted.

This feature is only available to users with special access rights. Sorry.

If you want to proceed, you need to register or log in first and then back Steam Spy on Patreon. Look for Indie or Pro pledge.

Don't forget to use the same email as on Steam Spy!

Playtime distribution:

Access restricted.

This feature is only available to users with special access rights. Sorry.

If you want to proceed, you need to register or log in first and then back Steam Spy on Patreon. Look for Indie or Pro pledge.

Don't forget to use the same email as on Steam Spy!

Playtime (2 weeks):

Access restricted.

This feature is only available to users with special access rights. Sorry.

If you want to proceed, you need to register or log in first and then back Steam Spy on Patreon. Look for Indie or Pro pledge.

Don't forget to use the same email as on Steam Spy!

User reviews:

Login required.

Please register or log in to see this information.